Los rodamientos insertables de la serie SER son rodamientos de alto rendimiento diseñados para soportar y transportar cargas axiales y radiales. Por lo general, constan de aros interiores, aros exteriores, elementos rodantes y jaulas, y pueden funcionar sin problemas en condiciones de alta velocidad y carga pesada. Las principales ventajas de estos rodamientos son su tamaño compacto y su facilidad de instalación, lo que los hace adecuados para una variedad de aplicaciones industriales como motores, transmisiones y equipos de automatización. Los rodamientos de inserción de la serie SER tienen buena resistencia al desgaste y a la corrosión y pueden extender efectivamente su vida útil. Además, su diseño permite una rápida sustitución, reduciendo los costes de mantenimiento y asegurando un funcionamiento eficiente del equipo. La serie SER es adecuada para una variedad de entornos de trabajo y funciona particularmente bien cuando se requiere reemplazo frecuente de piezas.
Los rodamientos insertables de bolas de acero inoxidable de la serie SER están diseñados para aplicaciones donde la resistencia a la corrosión, la higiene y la durabilidad son primordiales. Construidos con acero inoxidable martensítico AISI 440C, estos rodamientos ofrecen una excelente resistencia a la humedad, ácidos suaves y entornos de lavado sin comprometer la capacidad de carga. El diseño del anillo exterior esférico compensa la desalineación del eje y las imprecisiones de montaje, mientras que el mecanismo de bloqueo del tornillo de fijación proporciona una fijación segura del eje. Equipados con sellos de caucho de contacto 2RS en ambos lados, los rodamientos retienen el lubricante y evitan la entrada de contaminantes en aplicaciones de procesamiento de alimentos, farmacéuticas y marinas. Los rodamientos están prelubricados con grasa de calidad alimentaria (registrada NSF H1) para el contacto directo con productos consumibles. La temperatura de funcionamiento oscila entre -20 °C y 110 °C, compatible con ciclos de lavado a alta temperatura. Disponible en tamaños de orificio métrico y en pulgadas para reemplazo directo en equipos existentes.
AISI 440C es un acero inoxidable martensítico con mayor dureza (58-60 HRC) y resistencia al desgaste en comparación con el 304 (austenítico). 440C proporciona una mejor capacidad de carga y vida útil a la fatiga, lo que lo convierte en la opción preferida para aplicaciones de rodamientos donde se requiere resistencia a la corrosión y resistencia mecánica.
Sí, la serie SER está diseñada para entornos de lavado con temperaturas de funcionamiento de hasta 110 °C. Los sellos 2RS y la grasa de calidad alimentaria mantienen el rendimiento durante los ciclos de limpieza a alta temperatura. Para funcionamiento continuo por encima de 100 °C, consulte al fabricante para seleccionar la grasa.
Utilice una llave dinamométrica con el valor de par especificado (normalmente de 2 a 4 Nm para tamaños más pequeños, hasta 8 Nm para rodamientos más grandes). Un ajuste excesivo puede deformar el anillo interior, mientras que un ajuste insuficiente puede provocar el deslizamiento del eje. Utilice siempre compuesto bloqueador de roscas para aplicaciones con vibración.
Sí, la serie SER está disponible con grasa de grado alimenticio registrada NSF H1, lo que la hace adecuada para aplicaciones de contacto incidental con alimentos. La construcción de acero inoxidable y el diseño sellado evitan la contaminación del lubricante de los productos alimenticios.
Parámetros del producto
| Rodamiento No. | d | Dimensiones (mm) | ||||||||||
|---|---|---|---|---|---|---|---|---|---|---|---|---|
| (mm) | (pulg.) | D | Bi | ser | n | j | a | h | P | G | ds | |
| SER201 | 12 | 47 | 31 | 15.9 | 12.7 | 2.38 | 1.07 | 4 | 52.7 | 5 | M6x1 | |
| SER201-8 | 12.7 | 1/2 | 47 | 31 | 15.9 | 12.7 | 2.38 | 1.07 | 4 | 52.7 | 5 | 1/4-28UNF |
| SER202 | 15 | 47 | 31 | 15.9 | 12.7 | 2.38 | 1.07 | 4 | 52.7 | 5 | M6x1 | |
| SER202-10 | 15.875 | 5/8 | 47 | 31 | 15.9 | 12.7 | 2.38 | 1.07 | 4 | 52.7 | 5 | 1/4-28UNF |
| SER203 | 17 | 47 | 31 | 15.9 | 12.7 | 2.38 | 1.07 | 4 | 52.7 | 5 | M6x1 | |
| SER203-11 | 17.463 | 16/11 | 47 | 31 | 15.9 | 12.7 | 2.38 | 1.07 | 4 | 52.7 | 5 | 1/4-28UNF |
| SER204-12 | 19.05 | 3/4 | 47 | 31 | 15.9 | 12.7 | 2.38 | 1.07 | 4 | 52.7 | 5 | 1/4-28UNF |
| SER204 | 20 | 47 | 31 | 15.9 | 12.7 | 2.38 | 1.07 | 4 | 52.7 | 5 | M6x1 | |
| SER205-14 | 22.225 | 7/8 | 52 | 34.9 | 19 | 13.1 | 2.38 | 1.07 | 5.2 | 57.9 | 5.5 | 1/4-28UNF |
| SER205-15 | 23.813 | 15/16 | 52 | 34.9 | 19 | 13.1 | 2.38 | 1.07 | 5.2 | 57.9 | 5.5 | 1/4-28UNF |
| SER205 | 25 | 52 | 34.9 | 19 | 13.1 | 2.38 | 1.07 | 5.2 | 57.9 | 5.5 | M6x1 | |
| SER205-16 | 25.4 | 1 | 52 | 34.9 | 19 | 13.1 | 2.38 | 1.07 | 5.2 | 57.9 | 5.5 | 1/4-28UNF |
| SER206-18 | 28.575 | 1 1/8 | 62 | 38.1 | 22.2 | 15.9 | 3.18 | 1.65 | 5.6 | 67.7 | 5.5 | 1/4-28UNF |
| SER206 | 30 | 62 | 38.1 | 22.2 | 15.9 | 3.18 | 1.65 | 5.6 | 67.7 | 5.5 | M8x1.0 | |
| SER206-19 | 30.163 | 1 3/16 | 62 | 38.1 | 22.2 | 15.9 | 3.18 | 1.65 | 5.6 | 67.7 | 5.5 | 1/4-28UNF |
| SER206-20 | 31.75 | 1 1/4 | 62 | 38.1 | 22.2 | 15.9 | 3.18 | 1.65 | 5.6 | 67.7 | 5.5 | 1/4-28UNF |
| SER207-20 | 31.75 | 1 1/4 | 72 | 42.9 | 23.8 | 17.5 | 3.18 | 1.65 | 5.6 | 78.6 | 6.5 | 5/16-24UNF |
| SER207-21 | 33.338 | 1 5/16 | 72 | 42.9 | 23.8 | 17.5 | 3.18 | 1.65 | 5.6 | 78.6 | 6.5 | 5/16-24UNF |
| SER207-22 | 34.925 | 1 3/8 | 72 | 42.9 | 23.8 | 17.5 | 3.18 | 1.65 | 5.6 | 78.6 | 6.5 | 5/16-24UNF |
| SER207 | 35 | 72 | 42.9 | 23.8 | 17.5 | 3.18 | 1.65 | 5.6 | 78.6 | 6.5 | M8x1.0 | |
| SER207-23 | 36.513 | 1 7/16 | 72 | 42.9 | 23.8 | 17.5 | 3.18 | 1.65 | 5.6 | 78.6 | 6.5 | 5/16-24UNF |
| SER208-24 | 38.1 | 1 1/2 | 80 | 49.2 | 27.8 | 19 | 3.18 | 1.65 | 6.4 | 86.6 | 8 | 5/16-24UNF |
| SER208-25 | 39.688 | 1 9/16 | 80 | 49.2 | 27.8 | 19 | 3.18 | 1.65 | 6.4 | 86.6 | 8 | 5/16-24UNF |
| SER208 | 40 | 80 | 49.2 | 27.8 | 19 | 3.18 | 1.65 | 6.4 | 86.6 | 8 | M8x1.0 | |
| SER209-26 | 41.275 | 1 5/8 | 85 | 49.2 | 27.8 | 19 | 3.18 | 1.65 | 6.4 | 91.6 | 8 | 5/16-24UNF |
| SER209-27 | 42.863 | 1 11/16 | 85 | 49.2 | 27.8 | 19 | 3.18 | 1.65 | 6.4 | 91.6 | 8 | 5/16-24UNF |
| SER209 | 45 | 85 | 49.2 | 27.8 | 19 | 3.18 | 1.65 | 6.4 | 91.6 | 8 | M8x1.0 | |
| SER209-28 | 44.45 | 1 3/4 | 85 | 49.2 | 27.8 | 19 | 3.18 | 1.65 | 6.4 | 91.6 | 8 | 5/16-24UNF |
| SER210-30 | 47.625 | 1 7/8 | 90 | 51.6 | 28.6 | 19 | 3.18 | 2.41 | 7.5 | 96.5 | 9.5 | 3/8-24UNF |
| SER210-31 | 49.213 | 1 15/16 | 90 | 51.6 | 28.6 | 19 | 3.18 | 2.41 | 7.5 | 96.5 | 9.5 | 3/8-24UNF |
| SER210 | 50 | 90 | 51.6 | 28.6 | 19 | 3.18 | 2.41 | 7.5 | 96.5 | 9.5 | M10x1.25 | |
| SER211-32 | 50.8 | 2 | 100 | 55.6 | 30.2 | 22.2 | 3.18 | 2.41 | 7.5 | 106.5 | 10 | 3/8-24UNF |
| SER211-34 | 53.975 | 2 1/8 | 100 | 55.6 | 30.2 | 22.2 | 3.18 | 2.41 | 7.5 | 106.5 | 10 | 3/8-24UNF |
| SER211 | 55 | 100 | 55.6 | 30.2 | 22.2 | 3.18 | 2.41 | 7.5 | 106.5 | 10 | M10x1.25 | |
| SER211-35 | 55.563 | 2 3/16 | 100 | 55.6 | 30.2 | 22.2 | 3.18 | 2.41 | 7.5 | 106.5 | 10 | 3/8-24UNF |
| SER212-36 | 57.15 | 2 1/4 | 110 | 65.1 | 31.8 | 25.4 | 3.18 | 2.41 | 7.5 | 116.6 | 10 | 3/8-24UNF |
| SER212 | 60 | 110 | 65.1 | 31.8 | 25.4 | 3.18 | 2.41 | 7.5 | 116.6 | 10 | M10x1.25 | |
| SER212-38 | 60.325 | 2 3/8 | 110 | 65.1 | 31.8 | 25.4 | 3.18 | 2.41 | 7.5 | 116.6 | 10 | 3/8-24UNF |
| SER212-39 | 61.913 | 2.4375 | 110 | 65.1 | 31.8 | 25.4 | 3.18 | 2.41 | 7.5 | 116.6 | 10 | 3/8-24UNF |
sobre yinin
Aplicaciones industriales
QUE HAY NOTICIAS
Contacta con nosotros